AAY48 KGTF-KLAS
Flight info
| Callsign | AAY48 |
|---|---|
| Flight time | 1h 54m |
| Altitude | 38000 |
| Route | GTF DLN TCH MLF STEWW CHOWW4 |
| Aircraft | B38M/M-SDE2E3GHIJ4RWZ/LB1D1 |
Departure
| Time | 2026-04-14 02:04 |
|---|---|
| Airport | Great Falls International Airport (KGTF) |
Arrival
| Time | 2026-04-14 03:58 |
|---|---|
| Airport | Harry Reid International Airport (KLAS) |
| Time | Latitude | Longitude | Altitude | Speed | Heading |
|---|---|---|---|---|---|
| 2026-04-14 01:33 | 47.48290 | -111.35521 | 3675 ft | 0 kts | 232° |
| 2026-04-14 01:54 | 47.48295 | -111.35513 | 3675 ft | 2 kts | 225° |
| 2026-04-14 01:54 | 47.48307 | -111.35497 | 3675 ft | 2 kts | 209° |
| 2026-04-14 01:54 | 47.48323 | -111.35489 | 3675 ft | 2 kts | 195° |
| 2026-04-14 01:54 | 47.48333 | -111.35484 | 3675 ft | 1 kts | 201° |
| 2026-04-14 01:55 | 47.48334 | -111.35483 | 3675 ft | 0 kts | 202° |
| 2026-04-14 01:58 | 47.48330 | -111.35490 | 3675 ft | 3 kts | 234° |
| 2026-04-14 01:58 | 47.48335 | -111.35565 | 3675 ft | 10 kts | 285° |
| 2026-04-14 01:59 | 47.48344 | -111.35601 | 3675 ft | 0 kts | 291° |
| 2026-04-14 01:59 | 47.48353 | -111.35629 | 3675 ft | 3 kts | 301° |
| 2026-04-14 02:00 | 47.48372 | -111.35643 | 3675 ft | 4 kts | 352° |
| 2026-04-14 02:00 | 47.48406 | -111.35638 | 3675 ft | 9 kts | 8° |
| 2026-04-14 02:00 | 47.48500 | -111.35616 | 3674 ft | 16 kts | 9° |
| 2026-04-14 02:00 | 47.48615 | -111.35588 | 3674 ft | 17 kts | 9° |
| 2026-04-14 02:01 | 47.48704 | -111.35526 | 3673 ft | 13 kts | 43° |
| 2026-04-14 02:01 | 47.48775 | -111.35423 | 3672 ft | 15 kts | 45° |
| 2026-04-14 02:01 | 47.48847 | -111.35314 | 3671 ft | 7 kts | 45° |
| 2026-04-14 02:01 | 47.48891 | -111.35294 | 3670 ft | 5 kts | 337° |
| 2026-04-14 02:02 | 47.48893 | -111.35296 | 3670 ft | 0 kts | 333° |
| 2026-04-14 02:02 | 47.48894 | -111.35296 | 3670 ft | 1 kts | 333° |
| 2026-04-14 02:02 | 47.48926 | -111.35331 | 3669 ft | 11 kts | 316° |
| 2026-04-14 02:02 | 47.48936 | -111.35431 | 3669 ft | 9 kts | 232° |
| 2026-04-14 02:03 | 47.48890 | -111.35501 | 3669 ft | 9 kts | 225° |
| 2026-04-14 02:03 | 47.48798 | -111.35636 | 3672 ft | 43 kts | 225° |
| 2026-04-14 02:03 | 47.48438 | -111.36167 | 3675 ft | 103 kts | 225° |
| 2026-04-14 02:03 | 47.47800 | -111.37126 | 3699 ft | 152 kts | 228° |
| 2026-04-14 02:04 | 47.47025 | -111.38273 | 4120 ft | 167 kts | 225° |
| 2026-04-14 02:04 | 47.46171 | -111.39420 | 4706 ft | 167 kts | 225° |
| 2026-04-14 02:04 | 47.45276 | -111.40524 | 5284 ft | 167 kts | 223° |
| 2026-04-14 02:04 | 47.44365 | -111.41631 | 5751 ft | 175 kts | 224° |
| 2026-04-14 02:05 | 47.43379 | -111.42817 | 6180 ft | 192 kts | 223° |
| 2026-04-14 02:05 | 47.42305 | -111.44133 | 6649 ft | 209 kts | 224° |
| 2026-04-14 02:05 | 47.41140 | -111.45575 | 7042 ft | 229 kts | 223° |
| 2026-04-14 02:05 | 47.39877 | -111.47172 | 7490 ft | 248 kts | 224° |
| 2026-04-14 02:06 | 47.38521 | -111.48898 | 7950 ft | 267 kts | 224° |
| 2026-04-14 02:06 | 47.37082 | -111.50738 | 8623 ft | 275 kts | 224° |
| 2026-04-14 02:06 | 47.35643 | -111.52584 | 9570 ft | 275 kts | 224° |
| 2026-04-14 02:06 | 47.34187 | -111.54455 | 10273 ft | 283 kts | 224° |
| 2026-04-14 02:07 | 47.32668 | -111.56410 | 10739 ft | 298 kts | 224° |
| 2026-04-14 02:07 | 47.31066 | -111.58478 | 11117 ft | 315 kts | 223° |
| 2026-04-14 02:07 | 47.29127 | -111.60163 | 11539 ft | 334 kts | 199° |
| 2026-04-14 02:07 | 47.26866 | -111.61082 | 12191 ft | 341 kts | 201° |
| 2026-04-14 02:08 | 47.24585 | -111.62203 | 12803 ft | 347 kts | 201° |
| 2026-04-14 02:08 | 47.22293 | -111.63316 | 13623 ft | 349 kts | 200° |
| 2026-04-14 02:08 | 47.19954 | -111.64445 | 14228 ft | 355 kts | 200° |
| 2026-04-14 02:08 | 47.17593 | -111.65580 | 14889 ft | 359 kts | 200° |
| 2026-04-14 02:09 | 47.15205 | -111.66727 | 15531 ft | 363 kts | 200° |
| 2026-04-14 02:09 | 47.12793 | -111.67883 | 16149 ft | 367 kts | 200° |
| 2026-04-14 02:09 | 47.10341 | -111.69058 | 16710 ft | 372 kts | 200° |
| 2026-04-14 02:09 | 47.07871 | -111.70242 | 17259 ft | 376 kts | 200° |
| 2026-04-14 02:10 | 47.05374 | -111.71431 | 17856 ft | 379 kts | 200° |
| 2026-04-14 02:10 | 47.02850 | -111.72637 | 18273 ft | 385 kts | 200° |
| 2026-04-14 02:10 | 47.00298 | -111.73856 | 18809 ft | 386 kts | 200° |
| 2026-04-14 02:10 | 46.97738 | -111.75081 | 19232 ft | 390 kts | 200° |
| 2026-04-14 02:11 | 46.95145 | -111.76314 | 19692 ft | 392 kts | 200° |
| 2026-04-14 02:11 | 46.92547 | -111.77545 | 20165 ft | 395 kts | 199° |
| 2026-04-14 02:11 | 46.89914 | -111.78792 | 20596 ft | 397 kts | 200° |
| 2026-04-14 02:11 | 46.87287 | -111.80048 | 21017 ft | 401 kts | 200° |
| 2026-04-14 02:12 | 46.84620 | -111.81306 | 21454 ft | 403 kts | 199° |
| 2026-04-14 02:12 | 46.81938 | -111.82582 | 21834 ft | 406 kts | 199° |
| 2026-04-14 02:12 | 46.79283 | -111.83837 | 22252 ft | 408 kts | 199° |
| 2026-04-14 02:12 | 46.76533 | -111.85134 | 22660 ft | 411 kts | 199° |
| 2026-04-14 02:13 | 46.73801 | -111.86423 | 23059 ft | 414 kts | 199° |
| 2026-04-14 02:13 | 46.71044 | -111.87723 | 23447 ft | 417 kts | 199° |
| 2026-04-14 02:13 | 46.68318 | -111.89009 | 23809 ft | 419 kts | 199° |
| 2026-04-14 02:13 | 46.65542 | -111.90314 | 24162 ft | 421 kts | 199° |
| 2026-04-14 02:14 | 46.62745 | -111.91624 | 24519 ft | 423 kts | 199° |
| 2026-04-14 02:14 | 46.59941 | -111.92940 | 24848 ft | 426 kts | 199° |
| 2026-04-14 02:14 | 46.57116 | -111.94268 | 25246 ft | 426 kts | 199° |
| 2026-04-14 02:14 | 46.54283 | -111.95594 | 25560 ft | 430 kts | 199° |
| 2026-04-14 02:15 | 46.51430 | -111.96930 | 25931 ft | 431 kts | 199° |
| 2026-04-14 02:15 | 46.48568 | -111.98266 | 26256 ft | 434 kts | 199° |
| 2026-04-14 02:15 | 46.45696 | -111.99608 | 26584 ft | 436 kts | 198° |
| 2026-04-14 02:15 | 46.42803 | -112.00959 | 26951 ft | 437 kts | 198° |
| 2026-04-14 02:16 | 46.39895 | -112.02315 | 27248 ft | 439 kts | 198° |
| 2026-04-14 02:16 | 46.36980 | -112.03669 | 27562 ft | 442 kts | 198° |
| 2026-04-14 02:16 | 46.34042 | -112.05035 | 27885 ft | 443 kts | 198° |
| 2026-04-14 02:16 | 46.31094 | -112.06409 | 28226 ft | 445 kts | 198° |
| 2026-04-14 02:17 | 46.28150 | -112.07770 | 28544 ft | 446 kts | 198° |
| 2026-04-14 02:17 | 46.25177 | -112.09145 | 28782 ft | 449 kts | 198° |
| 2026-04-14 02:17 | 46.22205 | -112.10520 | 29120 ft | 450 kts | 198° |
| 2026-04-14 02:17 | 46.19234 | -112.11892 | 29381 ft | 452 kts | 198° |
| 2026-04-14 02:18 | 46.16250 | -112.13270 | 29658 ft | 454 kts | 198° |
| 2026-04-14 02:18 | 46.13233 | -112.14661 | 29931 ft | 456 kts | 198° |
| 2026-04-14 02:18 | 46.10174 | -112.16070 | 30139 ft | 458 kts | 198° |
| 2026-04-14 02:18 | 46.07126 | -112.17473 | 30333 ft | 460 kts | 198° |
| 2026-04-14 02:19 | 46.04105 | -112.18861 | 30552 ft | 462 kts | 198° |
| 2026-04-14 02:19 | 46.01041 | -112.20267 | 30756 ft | 464 kts | 198° |
| 2026-04-14 02:19 | 45.97955 | -112.21681 | 30958 ft | 466 kts | 198° |
| 2026-04-14 02:19 | 45.94898 | -112.23081 | 31157 ft | 467 kts | 198° |
| 2026-04-14 02:20 | 45.91793 | -112.24501 | 31347 ft | 469 kts | 198° |
| 2026-04-14 02:20 | 45.88675 | -112.25927 | 31539 ft | 471 kts | 198° |
| 2026-04-14 02:20 | 45.85553 | -112.27351 | 31746 ft | 472 kts | 198° |
| 2026-04-14 02:20 | 45.82415 | -112.28780 | 31949 ft | 473 kts | 198° |
| 2026-04-14 02:21 | 45.79275 | -112.30210 | 32204 ft | 473 kts | 198° |
| 2026-04-14 02:21 | 45.76150 | -112.31630 | 32489 ft | 472 kts | 198° |
| 2026-04-14 02:21 | 45.73012 | -112.33055 | 32756 ft | 472 kts | 198° |
| 2026-04-14 02:21 | 45.69877 | -112.34477 | 33006 ft | 472 kts | 198° |
| 2026-04-14 02:22 | 45.66753 | -112.35892 | 33268 ft | 471 kts | 198° |
| 2026-04-14 02:22 | 45.63670 | -112.37287 | 33515 ft | 471 kts | 198° |
| 2026-04-14 02:22 | 45.61559 | -112.38242 | 33681 ft | 470 kts | 198° |
| 2026-04-14 02:22 | 45.58442 | -112.39649 | 33944 ft | 469 kts | 198° |
| 2026-04-14 02:23 | 45.54323 | -112.41507 | 34218 ft | 468 kts | 198° |
| 2026-04-14 02:23 | 45.51213 | -112.42907 | 34421 ft | 468 kts | 198° |
| 2026-04-14 02:23 | 45.48122 | -112.44299 | 34618 ft | 467 kts | 198° |
| 2026-04-14 02:23 | 45.46035 | -112.45237 | 34753 ft | 466 kts | 198° |
| 2026-04-14 02:24 | 45.42946 | -112.46624 | 34955 ft | 465 kts | 198° |
| 2026-04-14 02:24 | 45.39855 | -112.48010 | 35134 ft | 464 kts | 198° |
| 2026-04-14 02:24 | 45.36768 | -112.49393 | 35309 ft | 464 kts | 198° |
| 2026-04-14 02:24 | 45.33691 | -112.50770 | 35502 ft | 463 kts | 199° |
| 2026-04-14 02:25 | 45.30670 | -112.52123 | 35702 ft | 462 kts | 199° |
| 2026-04-14 02:25 | 45.27610 | -112.53488 | 35856 ft | 461 kts | 197° |
| 2026-04-14 02:25 | 45.24444 | -112.54240 | 36044 ft | 461 kts | 181° |
| 2026-04-14 02:25 | 45.21259 | -112.54036 | 36370 ft | 457 kts | 177° |
| 2026-04-14 02:26 | 45.14880 | -112.53314 | 36437 ft | 462 kts | 176° |
| 2026-04-14 02:26 | 45.11687 | -112.52893 | 36626 ft | 461 kts | 175° |
| 2026-04-14 02:26 | 45.08491 | -112.52459 | 36757 ft | 461 kts | 175° |
| 2026-04-14 02:27 | 45.05311 | -112.52023 | 36911 ft | 460 kts | 176° |
| 2026-04-14 02:27 | 45.02122 | -112.51587 | 37058 ft | 459 kts | 176° |
| 2026-04-14 02:27 | 44.98943 | -112.51148 | 37165 ft | 460 kts | 176° |
| 2026-04-14 02:27 | 44.95751 | -112.50711 | 37294 ft | 459 kts | 176° |
| 2026-04-14 02:28 | 44.92580 | -112.50278 | 37435 ft | 459 kts | 176° |
| 2026-04-14 02:28 | 44.89400 | -112.49843 | 37573 ft | 458 kts | 176° |
| 2026-04-14 02:28 | 44.86232 | -112.49411 | 37687 ft | 458 kts | 176° |
| 2026-04-14 02:28 | 44.83094 | -112.48983 | 37812 ft | 458 kts | 176° |
| 2026-04-14 02:29 | 44.79937 | -112.48553 | 37957 ft | 456 kts | 176° |
| 2026-04-14 02:29 | 44.76772 | -112.48122 | 37991 ft | 456 kts | 176° |
| 2026-04-14 02:29 | 44.70466 | -112.47269 | 37991 ft | 456 kts | 176° |
| 2026-04-14 02:30 | 44.64151 | -112.46410 | 37998 ft | 455 kts | 176° |
| 2026-04-14 02:30 | 44.57853 | -112.45558 | 38002 ft | 454 kts | 176° |
| 2026-04-14 02:31 | 44.51563 | -112.44710 | 38003 ft | 454 kts | 176° |
| 2026-04-14 02:31 | 44.45274 | -112.43864 | 38005 ft | 453 kts | 177° |
| 2026-04-14 02:32 | 44.39005 | -112.43022 | 38005 ft | 452 kts | 177° |
| 2026-04-14 02:32 | 44.32752 | -112.42183 | 38000 ft | 451 kts | 177° |
| 2026-04-14 02:33 | 44.26502 | -112.41348 | 37998 ft | 450 kts | 177° |
| 2026-04-14 02:34 | 44.17146 | -112.40099 | 37994 ft | 450 kts | 177° |
| 2026-04-14 02:34 | 44.10920 | -112.39271 | 37988 ft | 450 kts | 177° |
| 2026-04-14 02:35 | 44.04696 | -112.38445 | 37983 ft | 450 kts | 177° |
| 2026-04-14 02:35 | 43.98461 | -112.37619 | 37981 ft | 450 kts | 178° |
| 2026-04-14 02:36 | 43.92224 | -112.36795 | 37984 ft | 450 kts | 178° |
| 2026-04-14 02:36 | 43.86033 | -112.35979 | 37988 ft | 450 kts | 178° |
| 2026-04-14 02:37 | 43.79743 | -112.35149 | 37990 ft | 450 kts | 178° |
| 2026-04-14 02:37 | 43.73552 | -112.34336 | 38001 ft | 450 kts | 178° |
| 2026-04-14 02:38 | 43.67311 | -112.33518 | 38007 ft | 450 kts | 178° |
| 2026-04-14 02:38 | 43.61084 | -112.32703 | 38014 ft | 450 kts | 178° |
| 2026-04-14 02:39 | 43.54842 | -112.31889 | 38018 ft | 450 kts | 178° |
| 2026-04-14 02:39 | 43.48611 | -112.31076 | 38018 ft | 449 kts | 178° |
| 2026-04-14 02:40 | 43.42394 | -112.30268 | 38019 ft | 449 kts | 178° |
| 2026-04-14 02:40 | 43.36179 | -112.29462 | 38025 ft | 448 kts | 178° |
| 2026-04-14 02:41 | 43.29969 | -112.28658 | 38031 ft | 448 kts | 178° |
| 2026-04-14 02:41 | 43.23771 | -112.27857 | 38035 ft | 447 kts | 178° |
| 2026-04-14 02:42 | 43.17578 | -112.27059 | 38040 ft | 447 kts | 178° |
| 2026-04-14 02:42 | 43.11569 | -112.26287 | 38043 ft | 446 kts | 178° |
| 2026-04-14 02:43 | 43.05498 | -112.25506 | 38035 ft | 446 kts | 178° |
| 2026-04-14 02:43 | 42.99308 | -112.24712 | 38036 ft | 446 kts | 178° |
| 2026-04-14 02:44 | 42.93130 | -112.23923 | 38035 ft | 445 kts | 178° |
| 2026-04-14 02:44 | 42.87020 | -112.23142 | 38040 ft | 445 kts | 178° |
| 2026-04-14 02:45 | 42.80815 | -112.22352 | 38037 ft | 445 kts | 178° |
| 2026-04-14 02:45 | 42.74700 | -112.21574 | 38037 ft | 444 kts | 178° |
| 2026-04-14 02:46 | 42.68583 | -112.20799 | 38044 ft | 444 kts | 178° |
| 2026-04-14 02:46 | 42.62390 | -112.20013 | 38037 ft | 443 kts | 178° |
| 2026-04-14 02:47 | 42.56255 | -112.19239 | 38038 ft | 443 kts | 178° |
| 2026-04-14 02:47 | 42.50131 | -112.18466 | 38032 ft | 442 kts | 179° |
| 2026-04-14 02:48 | 42.43999 | -112.17693 | 38029 ft | 442 kts | 179° |
| 2026-04-14 02:48 | 42.37869 | -112.16923 | 38023 ft | 442 kts | 179° |
| 2026-04-14 02:49 | 42.31749 | -112.16156 | 38015 ft | 442 kts | 179° |
| 2026-04-14 02:49 | 42.25628 | -112.15390 | 38012 ft | 442 kts | 179° |
| 2026-04-14 02:50 | 42.20546 | -112.14755 | 38008 ft | 442 kts | 179° |
| 2026-04-14 02:50 | 42.14431 | -112.13992 | 38001 ft | 441 kts | 179° |
| 2026-04-14 02:51 | 42.08313 | -112.13230 | 37991 ft | 441 kts | 179° |
| 2026-04-14 02:51 | 42.02209 | -112.12473 | 37986 ft | 441 kts | 179° |
| 2026-04-14 02:52 | 41.96096 | -112.11714 | 37982 ft | 441 kts | 179° |
| 2026-04-14 02:52 | 41.90869 | -112.11068 | 37987 ft | 440 kts | 179° |
| 2026-04-14 02:53 | 41.84923 | -112.10334 | 37970 ft | 439 kts | 179° |
| 2026-04-14 02:53 | 41.81913 | -112.09963 | 37974 ft | 440 kts | 179° |
| 2026-04-14 02:54 | 41.77595 | -112.09429 | 37982 ft | 439 kts | 179° |
| 2026-04-14 02:54 | 41.72015 | -112.08741 | 37981 ft | 438 kts | 179° |
| 2026-04-14 02:55 | 41.66044 | -112.08010 | 37998 ft | 438 kts | 179° |
| 2026-04-14 02:55 | 41.60058 | -112.07276 | 37983 ft | 438 kts | 179° |
| 2026-04-14 02:56 | 41.54469 | -112.06592 | 37986 ft | 437 kts | 179° |
| 2026-04-14 02:56 | 41.48380 | -112.05849 | 37986 ft | 437 kts | 179° |
| 2026-04-14 02:57 | 41.42332 | -112.05111 | 37978 ft | 436 kts | 179° |
| 2026-04-14 02:57 | 41.36298 | -112.04376 | 37972 ft | 436 kts | 179° |
| 2026-04-14 02:58 | 41.30264 | -112.03643 | 37985 ft | 435 kts | 179° |
| 2026-04-14 02:58 | 41.24244 | -112.02913 | 37985 ft | 435 kts | 179° |
| 2026-04-14 02:59 | 41.18356 | -112.02201 | 37988 ft | 435 kts | 179° |
| 2026-04-14 02:59 | 41.12336 | -112.01473 | 38000 ft | 434 kts | 179° |
| 2026-04-14 03:00 | 41.06355 | -112.00751 | 37994 ft | 434 kts | 179° |
| 2026-04-14 03:00 | 41.00358 | -112.00029 | 37989 ft | 434 kts | 179° |
| 2026-04-14 03:01 | 40.94335 | -111.99305 | 37978 ft | 433 kts | 179° |
| 2026-04-14 03:01 | 40.88327 | -111.98584 | 37987 ft | 433 kts | 179° |
| 2026-04-14 03:01 | 40.85390 | -111.98563 | 37974 ft | 424 kts | 193° |
| 2026-04-14 03:02 | 40.82528 | -111.99514 | 37998 ft | 419 kts | 199° |
| 2026-04-14 03:02 | 40.76911 | -112.01739 | 37994 ft | 422 kts | 200° |
| 2026-04-14 03:03 | 40.71317 | -112.04086 | 37984 ft | 422 kts | 201° |
| 2026-04-14 03:03 | 40.65738 | -112.06467 | 38010 ft | 421 kts | 201° |
| 2026-04-14 03:04 | 40.60170 | -112.08846 | 38011 ft | 421 kts | 201° |
| 2026-04-14 03:04 | 40.54602 | -112.11220 | 38005 ft | 421 kts | 201° |
| 2026-04-14 03:05 | 40.49012 | -112.13600 | 38013 ft | 422 kts | 201° |
| 2026-04-14 03:05 | 40.43432 | -112.15973 | 38013 ft | 422 kts | 201° |
| 2026-04-14 03:06 | 40.37847 | -112.18343 | 37997 ft | 422 kts | 201° |
| 2026-04-14 03:06 | 40.32249 | -112.20714 | 38002 ft | 422 kts | 201° |
| 2026-04-14 03:07 | 40.26703 | -112.23059 | 38014 ft | 422 kts | 201° |
| 2026-04-14 03:07 | 40.21079 | -112.25433 | 38010 ft | 422 kts | 200° |
| 2026-04-14 03:08 | 40.15488 | -112.27789 | 37999 ft | 422 kts | 200° |
| 2026-04-14 03:08 | 40.09913 | -112.30134 | 38009 ft | 422 kts | 200° |
| 2026-04-14 03:09 | 40.04306 | -112.32489 | 37987 ft | 422 kts | 200° |
| 2026-04-14 03:09 | 39.98745 | -112.34820 | 37986 ft | 422 kts | 200° |
| 2026-04-14 03:10 | 39.93152 | -112.37161 | 37973 ft | 422 kts | 200° |
| 2026-04-14 03:10 | 39.87557 | -112.39498 | 37969 ft | 422 kts | 200° |
| 2026-04-14 03:11 | 39.82014 | -112.41810 | 37970 ft | 422 kts | 200° |
| 2026-04-14 03:11 | 39.76347 | -112.44169 | 37961 ft | 423 kts | 200° |
| 2026-04-14 03:12 | 39.70768 | -112.46487 | 37960 ft | 423 kts | 200° |
| 2026-04-14 03:12 | 39.66101 | -112.48424 | 37967 ft | 423 kts | 200° |
| 2026-04-14 03:13 | 39.60499 | -112.50745 | 37978 ft | 423 kts | 200° |
| 2026-04-14 03:13 | 39.54888 | -112.53066 | 37987 ft | 423 kts | 200° |
| 2026-04-14 03:14 | 39.49284 | -112.55380 | 38001 ft | 423 kts | 200° |
| 2026-04-14 03:14 | 39.43680 | -112.57690 | 38006 ft | 423 kts | 200° |
| 2026-04-14 03:15 | 39.38073 | -112.59998 | 38007 ft | 422 kts | 200° |
| 2026-04-14 03:15 | 39.32471 | -112.62299 | 37999 ft | 422 kts | 200° |
| 2026-04-14 03:16 | 39.26883 | -112.64591 | 37986 ft | 423 kts | 200° |
| 2026-04-14 03:16 | 39.21399 | -112.66837 | 37976 ft | 423 kts | 200° |
| 2026-04-14 03:17 | 39.15783 | -112.69133 | 37959 ft | 424 kts | 200° |
| 2026-04-14 03:17 | 39.07339 | -112.72577 | 37958 ft | 424 kts | 200° |
| 2026-04-14 03:18 | 39.01702 | -112.74872 | 37958 ft | 424 kts | 200° |
| 2026-04-14 03:18 | 38.96657 | -112.76923 | 37956 ft | 424 kts | 200° |
| 2026-04-14 03:19 | 38.90958 | -112.79235 | 37952 ft | 424 kts | 200° |
| 2026-04-14 03:19 | 38.85324 | -112.81518 | 37954 ft | 424 kts | 200° |
| 2026-04-14 03:20 | 38.79686 | -112.83797 | 37958 ft | 424 kts | 200° |
| 2026-04-14 03:20 | 38.74057 | -112.86070 | 37964 ft | 424 kts | 200° |
| 2026-04-14 03:21 | 38.68424 | -112.88341 | 37977 ft | 424 kts | 200° |
| 2026-04-14 03:21 | 38.62813 | -112.90599 | 37983 ft | 423 kts | 200° |
| 2026-04-14 03:22 | 38.57197 | -112.92856 | 37999 ft | 423 kts | 200° |
| 2026-04-14 03:22 | 38.51819 | -112.95014 | 38003 ft | 423 kts | 200° |
| 2026-04-14 03:23 | 38.46241 | -112.97249 | 38008 ft | 422 kts | 200° |
| 2026-04-14 03:23 | 38.40773 | -112.99436 | 38009 ft | 422 kts | 200° |
| 2026-04-14 03:24 | 38.35196 | -113.01787 | 37892 ft | 421 kts | 203° |
| 2026-04-14 03:24 | 38.32480 | -113.03108 | 37638 ft | 419 kts | 202° |
| 2026-04-14 03:24 | 38.29747 | -113.04415 | 37408 ft | 419 kts | 202° |
| 2026-04-14 03:25 | 38.27024 | -113.05709 | 37160 ft | 418 kts | 202° |
| 2026-04-14 03:25 | 38.24290 | -113.07005 | 36925 ft | 418 kts | 202° |
| 2026-04-14 03:25 | 38.21577 | -113.08289 | 36688 ft | 418 kts | 202° |
| 2026-04-14 03:25 | 38.18917 | -113.09548 | 36462 ft | 418 kts | 202° |
| 2026-04-14 03:26 | 38.16198 | -113.10833 | 36233 ft | 417 kts | 202° |
| 2026-04-14 03:26 | 38.13469 | -113.12121 | 35995 ft | 417 kts | 201° |
| 2026-04-14 03:26 | 38.10792 | -113.13384 | 35777 ft | 417 kts | 201° |
| 2026-04-14 03:26 | 38.08075 | -113.14665 | 35559 ft | 416 kts | 201° |
| 2026-04-14 03:27 | 38.05356 | -113.15947 | 35351 ft | 416 kts | 201° |
| 2026-04-14 03:27 | 38.02640 | -113.17225 | 35138 ft | 416 kts | 201° |
| 2026-04-14 03:27 | 37.99938 | -113.18496 | 34941 ft | 416 kts | 201° |
| 2026-04-14 03:27 | 37.97226 | -113.19771 | 34732 ft | 415 kts | 201° |
| 2026-04-14 03:28 | 37.94522 | -113.21041 | 34535 ft | 415 kts | 201° |
| 2026-04-14 03:28 | 37.91816 | -113.22311 | 34338 ft | 414 kts | 201° |
| 2026-04-14 03:28 | 37.89119 | -113.23576 | 34143 ft | 414 kts | 201° |
| 2026-04-14 03:28 | 37.86420 | -113.24840 | 33934 ft | 413 kts | 201° |
| 2026-04-14 03:29 | 37.83715 | -113.26106 | 33696 ft | 413 kts | 201° |
| 2026-04-14 03:29 | 37.81019 | -113.27368 | 33449 ft | 415 kts | 201° |
| 2026-04-14 03:29 | 37.78313 | -113.28632 | 33202 ft | 416 kts | 201° |
| 2026-04-14 03:29 | 37.75587 | -113.29906 | 32961 ft | 416 kts | 200° |
| 2026-04-14 03:30 | 37.72893 | -113.31163 | 32717 ft | 417 kts | 200° |
| 2026-04-14 03:30 | 37.70152 | -113.32442 | 32465 ft | 417 kts | 200° |
| 2026-04-14 03:30 | 37.67435 | -113.33707 | 32228 ft | 417 kts | 200° |
| 2026-04-14 03:30 | 37.64718 | -113.34972 | 32038 ft | 416 kts | 200° |
| 2026-04-14 03:31 | 37.59279 | -113.37502 | 31981 ft | 417 kts | 200° |
| 2026-04-14 03:31 | 37.53860 | -113.40018 | 31982 ft | 417 kts | 200° |
| 2026-04-14 03:32 | 37.48413 | -113.42544 | 31962 ft | 417 kts | 200° |
| 2026-04-14 03:32 | 37.42959 | -113.45069 | 31949 ft | 417 kts | 200° |
| 2026-04-14 03:33 | 37.38629 | -113.47069 | 31957 ft | 418 kts | 200° |
| 2026-04-14 03:33 | 37.33475 | -113.49449 | 31962 ft | 418 kts | 201° |
| 2026-04-14 03:34 | 37.29219 | -113.51414 | 31968 ft | 419 kts | 201° |
| 2026-04-14 03:35 | 37.23836 | -113.54036 | 31978 ft | 418 kts | 206° |
| 2026-04-14 03:35 | 37.18580 | -113.57176 | 31986 ft | 419 kts | 205° |
| 2026-04-14 03:36 | 37.13302 | -113.60247 | 31996 ft | 419 kts | 205° |
| 2026-04-14 03:36 | 37.08037 | -113.63296 | 31999 ft | 410 kts | 205° |
| 2026-04-14 03:36 | 37.05457 | -113.64786 | 31889 ft | 404 kts | 205° |
| 2026-04-14 03:37 | 37.02928 | -113.66247 | 31478 ft | 399 kts | 205° |
| 2026-04-14 03:37 | 37.00426 | -113.67691 | 30938 ft | 397 kts | 205° |
| 2026-04-14 03:37 | 36.97906 | -113.69144 | 30429 ft | 395 kts | 205° |
| 2026-04-14 03:37 | 36.95421 | -113.70582 | 29892 ft | 392 kts | 206° |
| 2026-04-14 03:38 | 36.92994 | -113.72002 | 29246 ft | 390 kts | 206° |
| 2026-04-14 03:38 | 36.91960 | -113.72607 | 29030 ft | 388 kts | 206° |
| 2026-04-14 03:38 | 36.90555 | -113.73427 | 28743 ft | 385 kts | 205° |
| 2026-04-14 03:38 | 36.88147 | -113.74831 | 28302 ft | 379 kts | 205° |
| 2026-04-14 03:39 | 36.85762 | -113.76222 | 27866 ft | 374 kts | 205° |
| 2026-04-14 03:39 | 36.83420 | -113.77588 | 27395 ft | 372 kts | 205° |
| 2026-04-14 03:39 | 36.81096 | -113.78944 | 26918 ft | 376 kts | 205° |
| 2026-04-14 03:39 | 36.78688 | -113.80342 | 26443 ft | 377 kts | 205° |
| 2026-04-14 03:40 | 36.76342 | -113.81706 | 25999 ft | 376 kts | 205° |
| 2026-04-14 03:40 | 36.73951 | -113.83096 | 25540 ft | 374 kts | 205° |
| 2026-04-14 03:40 | 36.71850 | -113.84316 | 25133 ft | 372 kts | 205° |
| 2026-04-14 03:40 | 36.69626 | -113.85608 | 24701 ft | 370 kts | 205° |
| 2026-04-14 03:41 | 36.67289 | -113.86964 | 24256 ft | 368 kts | 205° |
| 2026-04-14 03:41 | 36.64975 | -113.88306 | 23808 ft | 366 kts | 205° |
| 2026-04-14 03:41 | 36.62651 | -113.89655 | 23340 ft | 363 kts | 205° |
| 2026-04-14 03:41 | 36.60403 | -113.90982 | 22821 ft | 361 kts | 209° |
| 2026-04-14 03:42 | 36.58434 | -113.92920 | 22176 ft | 362 kts | 229° |
| 2026-04-14 03:42 | 36.56918 | -113.95261 | 21745 ft | 359 kts | 230° |
| 2026-04-14 03:42 | 36.55320 | -113.97711 | 21269 ft | 356 kts | 231° |
| 2026-04-14 03:42 | 36.53818 | -114.00069 | 20769 ft | 354 kts | 232° |
| 2026-04-14 03:43 | 36.52295 | -114.02484 | 20260 ft | 353 kts | 232° |
| 2026-04-14 03:43 | 36.50801 | -114.04875 | 19747 ft | 351 kts | 232° |
| 2026-04-14 03:43 | 36.49300 | -114.07282 | 19238 ft | 351 kts | 232° |
| 2026-04-14 03:43 | 36.47805 | -114.09684 | 18727 ft | 350 kts | 232° |
| 2026-04-14 03:44 | 36.46313 | -114.12082 | 18210 ft | 350 kts | 232° |
| 2026-04-14 03:44 | 36.44826 | -114.14470 | 17654 ft | 349 kts | 233° |
| 2026-04-14 03:44 | 36.43344 | -114.16849 | 17107 ft | 348 kts | 232° |
| 2026-04-14 03:44 | 36.41870 | -114.19212 | 16603 ft | 345 kts | 233° |
| 2026-04-14 03:45 | 36.40401 | -114.21568 | 16105 ft | 343 kts | 233° |
| 2026-04-14 03:45 | 36.38936 | -114.23888 | 15630 ft | 341 kts | 232° |
| 2026-04-14 03:45 | 36.37478 | -114.26177 | 15226 ft | 336 kts | 232° |
| 2026-04-14 03:45 | 36.36036 | -114.28438 | 14856 ft | 331 kts | 232° |
| 2026-04-14 03:46 | 36.34624 | -114.30657 | 14531 ft | 325 kts | 233° |
| 2026-04-14 03:46 | 36.33248 | -114.32817 | 14132 ft | 322 kts | 232° |
| 2026-04-14 03:46 | 36.31862 | -114.34990 | 13698 ft | 320 kts | 232° |
| 2026-04-14 03:46 | 36.30487 | -114.37143 | 13252 ft | 317 kts | 232° |
| 2026-04-14 03:47 | 36.29109 | -114.39302 | 12831 ft | 313 kts | 233° |
| 2026-04-14 03:47 | 36.27766 | -114.41403 | 12437 ft | 309 kts | 233° |
| 2026-04-14 03:47 | 36.26438 | -114.43480 | 12068 ft | 305 kts | 233° |
| 2026-04-14 03:47 | 36.25127 | -114.45520 | 11674 ft | 301 kts | 232° |
| 2026-04-14 03:48 | 36.23816 | -114.47529 | 11266 ft | 299 kts | 232° |
| 2026-04-14 03:48 | 36.22516 | -114.49523 | 10924 ft | 295 kts | 232° |
| 2026-04-14 03:48 | 36.21243 | -114.51482 | 10563 ft | 291 kts | 232° |
| 2026-04-14 03:48 | 36.19979 | -114.53421 | 10223 ft | 287 kts | 232° |
| 2026-04-14 03:49 | 36.18744 | -114.55309 | 9876 ft | 285 kts | 232° |
| 2026-04-14 03:49 | 36.17503 | -114.57208 | 9487 ft | 283 kts | 232° |
| 2026-04-14 03:49 | 36.16269 | -114.59097 | 9111 ft | 281 kts | 232° |
| 2026-04-14 03:49 | 36.15035 | -114.60983 | 8846 ft | 274 kts | 232° |
| 2026-04-14 03:50 | 36.13872 | -114.62758 | 8717 ft | 264 kts | 232° |
| 2026-04-14 03:50 | 36.12741 | -114.64485 | 8568 ft | 254 kts | 232° |
| 2026-04-14 03:50 | 36.11638 | -114.66169 | 8363 ft | 248 kts | 232° |
| 2026-04-14 03:50 | 36.10577 | -114.67788 | 8265 ft | 237 kts | 232° |
| 2026-04-14 03:51 | 36.09560 | -114.69338 | 8156 ft | 226 kts | 233° |
| 2026-04-14 03:51 | 36.08595 | -114.70816 | 8049 ft | 216 kts | 233° |
| 2026-04-14 03:51 | 36.07736 | -114.72323 | 7908 ft | 217 kts | 249° |
| 2026-04-14 03:51 | 36.07466 | -114.74155 | 7639 ft | 220 kts | 269° |
| 2026-04-14 03:52 | 36.07545 | -114.76046 | 7402 ft | 222 kts | 277° |
| 2026-04-14 03:52 | 36.07681 | -114.77951 | 7155 ft | 222 kts | 267° |
| 2026-04-14 03:52 | 36.07542 | -114.79850 | 6917 ft | 221 kts | 265° |
| 2026-04-14 03:52 | 36.07441 | -114.81740 | 6687 ft | 220 kts | 268° |
| 2026-04-14 03:53 | 36.07397 | -114.83623 | 6486 ft | 219 kts | 269° |
| 2026-04-14 03:53 | 36.07381 | -114.85506 | 6229 ft | 219 kts | 270° |
| 2026-04-14 03:53 | 36.07375 | -114.87387 | 5949 ft | 216 kts | 270° |
| 2026-04-14 03:53 | 36.07372 | -114.89222 | 5765 ft | 210 kts | 270° |
| 2026-04-14 03:54 | 36.07370 | -114.91010 | 5509 ft | 208 kts | 270° |
| 2026-04-14 03:54 | 36.07369 | -114.92784 | 5271 ft | 205 kts | 270° |
| 2026-04-14 03:54 | 36.07369 | -114.94516 | 5055 ft | 198 kts | 270° |
| 2026-04-14 03:54 | 36.07369 | -114.96191 | 4795 ft | 193 kts | 270° |
| 2026-04-14 03:55 | 36.07368 | -114.97792 | 4514 ft | 182 kts | 270° |
| 2026-04-14 03:55 | 36.07368 | -114.99327 | 4273 ft | 173 kts | 270° |
| 2026-04-14 03:55 | 36.07368 | -115.00812 | 4040 ft | 173 kts | 270° |
| 2026-04-14 03:55 | 36.07367 | -115.01995 | 3876 ft | 173 kts | 270° |
| 2026-04-14 03:56 | 36.07367 | -115.03485 | 3801 ft | 174 kts | 270° |
| 2026-04-14 03:56 | 36.07365 | -115.05045 | 2974 ft | 183 kts | 270° |
| 2026-04-14 03:56 | 36.07366 | -115.06507 | 2962 ft | 163 kts | 272° |
| 2026-04-14 03:56 | 36.07370 | -115.07834 | 2966 ft | 152 kts | 270° |
| 2026-04-14 03:57 | 36.07368 | -115.09126 | 2785 ft | 149 kts | 270° |
| 2026-04-14 03:57 | 36.07378 | -115.10396 | 2592 ft | 149 kts | 269° |
| 2026-04-14 03:57 | 36.07380 | -115.11673 | 2401 ft | 148 kts | 266° |
| 2026-04-14 03:57 | 36.07367 | -115.12927 | 2196 ft | 142 kts | 264° |
| 2026-04-14 03:58 | 36.07364 | -115.13995 | 2192 ft | 95 kts | 270° |
| 2026-04-14 03:58 | 36.07367 | -115.14514 | 2193 ft | 29 kts | 270° |
| 2026-04-14 03:58 | 36.07371 | -115.14732 | 2192 ft | 23 kts | 275° |
| 2026-04-14 03:58 | 36.07415 | -115.14928 | 2191 ft | 24 kts | 296° |
| 2026-04-14 03:59 | 36.07481 | -115.15065 | 2192 ft | 16 kts | 305° |
| 2026-04-14 03:59 | 36.07528 | -115.15129 | 2191 ft | 9 kts | 323° |
| 2026-04-14 03:59 | 36.07595 | -115.15172 | 2193 ft | 16 kts | 337° |
| 2026-04-14 03:59 | 36.07711 | -115.15235 | 2192 ft | 16 kts | 335° |
| 2026-04-14 04:00 | 36.07790 | -115.15296 | 2192 ft | 11 kts | 296° |
| 2026-04-14 04:00 | 36.07802 | -115.15393 | 2191 ft | 12 kts | 270° |
| 2026-04-14 04:00 | 36.07804 | -115.15508 | 2191 ft | 14 kts | 272° |
| 2026-04-14 04:00 | 36.07807 | -115.15641 | 2190 ft | 16 kts | 271° |
| 2026-04-14 04:01 | 36.07805 | -115.15779 | 2191 ft | 13 kts | 268° |
| 2026-04-14 04:01 | 36.07850 | -115.15831 | 2192 ft | 11 kts | 359° |
| 2026-04-14 04:01 | 36.07934 | -115.15824 | 2190 ft | 16 kts | 3° |
| 2026-04-14 04:01 | 36.08089 | -115.15823 | 2191 ft | 26 kts | 358° |
| 2026-04-14 04:02 | 36.08265 | -115.15826 | 2191 ft | 24 kts | 0° |
| 2026-04-14 04:02 | 36.08424 | -115.15828 | 2190 ft | 17 kts | 359° |
| 2026-04-14 04:02 | 36.08533 | -115.15830 | 2194 ft | 16 kts | 0° |
| 2026-04-14 04:02 | 36.08595 | -115.15758 | 2192 ft | 11 kts | 87° |
| 2026-04-14 04:03 | 36.08562 | -115.15714 | 2194 ft | 9 kts | 160° |
| 2026-04-14 04:03 | 36.08502 | -115.15650 | 2190 ft | 13 kts | 104° |
| 2026-04-14 04:03 | 36.08443 | -115.15562 | 2192 ft | 15 kts | 152° |
| 2026-04-14 04:03 | 36.08379 | -115.15520 | 2192 ft | 16 kts | 148° |
| 2026-04-14 04:04 | 36.08373 | -115.15442 | 2190 ft | 10 kts | 66° |
| 2026-04-14 04:04 | 36.08409 | -115.15359 | 2194 ft | 12 kts | 64° |
| 2026-04-14 04:04 | 36.08441 | -115.15292 | 2191 ft | 4 kts | 31° |
| 2026-04-14 04:04 | 36.08476 | -115.15280 | 2193 ft | 6 kts | 7° |
| 2026-04-14 04:05 | 36.08508 | -115.15275 | 2190 ft | 0 kts | 7° |